createdAt,value
2023-04-22T00:01:13.541Z,13.87
2023-04-22T00:03:42.234Z,13.72
2023-04-22T00:06:08.840Z,14.01
2023-04-22T00:08:35.331Z,13.15
2023-04-22T00:11:02.041Z,13.38
2023-04-22T00:13:28.437Z,13.90
2023-04-22T00:15:54.864Z,13.86
2023-04-22T00:18:21.886Z,13.72
2023-04-22T00:20:48.329Z,13.87
2023-04-22T00:23:14.694Z,13.71
2023-04-22T00:25:41.304Z,14.01
2023-04-22T00:28:08.000Z,14.07
2023-04-22T00:30:35.292Z,13.91
2023-04-22T00:33:01.668Z,13.34
2023-04-22T00:35:28.105Z,13.80
2023-04-22T00:37:54.632Z,13.07
2023-04-22T00:40:21.792Z,13.69
2023-04-22T00:42:50.674Z,13.72
2023-04-22T00:45:18.978Z,13.72
2023-04-22T00:47:46.333Z,13.65
2023-04-22T00:50:13.404Z,13.82
2023-04-22T00:52:39.841Z,13.68
2023-04-22T00:55:06.789Z,13.51
2023-04-22T00:57:35.838Z,13.49
2023-04-22T01:00:03.508Z,13.16
2023-04-22T01:02:30.343Z,13.69
2023-04-22T01:04:56.964Z,13.45
2023-04-22T01:07:23.464Z,13.10
2023-04-22T01:09:49.844Z,13.46
2023-04-22T01:12:16.286Z,13.24
2023-04-22T01:14:42.690Z,13.03
2023-04-22T01:17:10.601Z,13.36
2023-04-22T01:19:37.745Z,13.43
2023-04-22T01:22:05.804Z,13.42
2023-04-22T01:24:33.556Z,13.03
2023-04-22T01:27:00.045Z,12.81
2023-04-22T01:29:26.792Z,13.30
2023-04-22T01:31:53.867Z,13.17
2023-04-22T01:34:20.437Z,13.00
2023-04-22T01:36:46.808Z,13.01
2023-04-22T01:39:13.312Z,13.22
2023-04-22T01:41:39.743Z,13.07
2023-04-22T01:44:06.118Z,13.19
2023-04-22T01:46:33.446Z,12.97
2023-04-22T01:48:59.920Z,13.64
2023-04-22T01:51:26.265Z,13.88
2023-04-22T01:53:52.952Z,13.67
2023-04-22T01:56:19.332Z,14.13
2023-04-22T01:58:45.717Z,14.01
2023-04-22T02:01:13.005Z,13.81
2023-04-22T02:03:39.659Z,13.69
2023-04-22T02:06:06.256Z,13.58
2023-04-22T02:08:32.667Z,13.85
2023-04-22T02:11:00.773Z,14.01
2023-04-22T02:13:34.823Z,14.04
2023-04-22T02:16:01.224Z,14.08
2023-04-22T02:18:27.622Z,13.96
2023-04-22T02:20:54.012Z,13.92
2023-04-22T02:23:20.681Z,14.07
2023-04-22T02:25:50.896Z,13.88
2023-04-22T02:28:18.105Z,14.06
2023-04-22T02:30:47.584Z,14.14
2023-04-22T02:33:13.966Z,13.93
2023-04-22T02:35:40.269Z,13.35
2023-04-22T02:38:06.625Z,13.88
2023-04-22T02:40:32.941Z,13.80
2023-04-22T02:42:59.369Z,13.85
2023-04-22T02:45:25.796Z,13.86
2023-04-22T02:47:52.175Z,13.74
2023-04-22T02:50:18.716Z,13.28
2023-04-22T02:52:45.197Z,13.88
2023-04-22T02:55:11.595Z,13.42
2023-04-22T02:57:37.968Z,13.78
2023-04-22T03:00:04.957Z,13.74
2023-04-22T03:02:31.460Z,13.70
2023-04-22T03:04:57.969Z,13.88
2023-04-22T03:07:24.347Z,13.92
2023-04-22T03:09:50.660Z,13.73
2023-04-22T03:12:16.976Z,13.76
2023-04-22T03:14:43.424Z,13.69
2023-04-22T03:17:09.772Z,14.02
2023-04-22T03:19:36.237Z,13.59
2023-04-22T03:22:02.614Z,13.59
2023-04-22T03:24:28.928Z,14.04
2023-04-22T03:26:55.258Z,13.35
2023-04-22T03:29:21.662Z,13.37
2023-04-22T03:31:48.098Z,13.29
2023-04-22T03:34:14.495Z,13.84
2023-04-22T03:36:41.282Z,13.40
2023-04-22T03:39:08.253Z,13.76
2023-04-22T03:41:34.894Z,13.87
2023-04-22T03:44:01.919Z,13.99
2023-04-22T03:46:28.585Z,13.88
2023-04-22T03:48:54.990Z,13.84
2023-04-22T03:51:21.350Z,13.73
2023-04-22T03:53:47.677Z,13.84
2023-04-22T03:56:14.073Z,13.62
2023-04-22T03:58:40.424Z,13.95
2023-04-22T04:01:07.817Z,13.54
2023-04-22T04:03:34.505Z,13.64
2023-04-22T04:06:01.273Z,13.81
2023-04-22T04:08:27.821Z,14.02
2023-04-22T04:10:54.192Z,13.84
2023-04-22T04:13:20.531Z,13.91
2023-04-22T04:15:47.191Z,13.87
2023-04-22T04:18:13.730Z,13.77
2023-04-22T04:20:40.219Z,13.95
2023-04-22T04:23:06.612Z,13.85
2023-04-22T04:25:38.199Z,13.42
2023-04-22T04:28:09.259Z,13.65
2023-04-22T04:30:36.665Z,13.46
2023-04-22T04:33:07.164Z,13.50
2023-04-22T04:35:34.751Z,13.40
2023-04-22T04:38:02.024Z,13.99
2023-04-22T04:40:31.356Z,14.08
2023-04-22T04:42:57.762Z,13.91
2023-04-22T04:45:24.825Z,13.75
2023-04-22T04:47:52.872Z,13.96
2023-04-22T04:50:22.525Z,14.06
2023-04-22T04:52:49.106Z,14.10
2023-04-22T04:55:16.303Z,14.23
2023-04-22T04:57:44.836Z,13.98
2023-04-22T05:00:12.252Z,13.84
2023-04-22T05:02:38.730Z,14.07
2023-04-22T05:05:06.600Z,14.19
2023-04-22T05:07:33.038Z,13.81
2023-04-22T05:10:00.788Z,13.45
2023-04-22T05:12:27.165Z,13.53
2023-04-22T05:14:53.498Z,13.35
2023-04-22T05:17:20.740Z,13.66
2023-04-22T05:19:47.191Z,14.07
2023-04-22T05:22:13.636Z,13.69
2023-04-22T05:24:39.946Z,13.85
2023-04-22T05:27:06.777Z,14.18
2023-04-22T05:29:33.158Z,13.73
2023-04-22T05:31:59.565Z,14.23
2023-04-22T05:34:26.011Z,14.28
2023-04-22T05:36:52.574Z,13.84
2023-04-22T05:39:20.073Z,14.27
2023-04-22T05:41:47.159Z,13.91
2023-04-22T05:44:13.660Z,14.19
2023-04-22T05:46:40.440Z,14.23
2023-04-22T05:49:06.813Z,14.31
2023-04-22T05:51:33.368Z,13.68
2023-04-22T05:53:59.704Z,14.42
2023-04-22T05:56:26.144Z,14.49
2023-04-22T05:58:52.568Z,14.48
2023-04-22T06:01:19.019Z,14.27
2023-04-22T06:03:45.480Z,14.00
2023-04-22T06:06:11.918Z,14.58
2023-04-22T06:08:38.308Z,14.35
2023-04-22T06:11:04.760Z,14.60
2023-04-22T06:13:31.134Z,14.48
2023-04-22T06:15:57.733Z,14.74
2023-04-22T06:18:24.852Z,14.72
2023-04-22T06:20:52.321Z,14.38
2023-04-22T06:23:18.667Z,14.68
2023-04-22T06:25:45.148Z,14.91
2023-04-22T06:28:11.495Z,14.85
2023-04-22T06:30:37.816Z,14.84
2023-04-22T06:33:04.175Z,14.86
2023-04-22T06:35:31.370Z,14.62
2023-04-22T06:37:57.743Z,14.98
2023-04-22T06:40:24.204Z,15.18
2023-04-22T06:42:50.555Z,15.12
2023-04-22T06:45:16.884Z,15.10
2023-04-22T06:47:43.285Z,14.71
2023-04-22T06:50:10.349Z,14.96
2023-04-22T06:52:36.720Z,14.76
2023-04-22T06:55:03.664Z,15.55
2023-04-22T06:57:30.817Z,15.66
2023-04-22T06:59:57.231Z,15.53
2023-04-22T07:02:23.618Z,15.09
2023-04-22T07:04:50.106Z,15.70
2023-04-22T07:07:16.502Z,15.14
2023-04-22T07:09:42.905Z,15.31
2023-04-22T07:12:09.272Z,15.84
2023-04-22T07:14:35.678Z,15.38
2023-04-22T07:17:02.027Z,15.74
2023-04-22T07:19:28.524Z,15.80
2023-04-22T07:21:54.863Z,15.89
2023-04-22T07:24:21.258Z,15.94
2023-04-22T07:26:47.692Z,15.52
2023-04-22T07:29:14.095Z,15.98
2023-04-22T07:31:40.493Z,15.96
2023-04-22T07:34:07.124Z,16.12
2023-04-22T07:36:33.639Z,16.28
2023-04-22T07:39:00.171Z,15.77
2023-04-22T07:41:26.532Z,16.18
2023-04-22T07:43:52.908Z,15.85
2023-04-22T07:46:22.080Z,15.80
2023-04-22T07:48:48.801Z,16.34
2023-04-22T07:51:15.197Z,16.28
2023-04-22T07:53:42.252Z,16.66
2023-04-22T07:56:08.926Z,16.50
2023-04-22T07:58:35.519Z,16.76
2023-04-22T08:01:02.049Z,17.04
2023-04-22T08:03:28.609Z,16.67
2023-04-22T08:05:58.104Z,17.29
2023-04-22T08:08:26.436Z,17.43
2023-04-22T08:10:52.806Z,17.36
2023-04-22T08:13:19.186Z,17.37
2023-04-22T08:15:45.670Z,17.01
2023-04-22T08:18:12.120Z,16.79
2023-04-22T08:20:38.481Z,17.01
2023-04-22T08:23:06.907Z,17.53
2023-04-22T08:25:34.664Z,17.38
2023-04-22T08:28:01.159Z,17.35
2023-04-22T08:30:27.594Z,17.62
2023-04-22T08:32:54.037Z,17.17
2023-04-22T08:35:20.801Z,17.85
2023-04-22T08:37:47.248Z,17.89
2023-04-22T08:40:13.661Z,17.77
2023-04-22T08:42:40.086Z,17.75
2023-04-22T08:45:06.699Z,18.37
2023-04-22T08:47:34.971Z,18.47
2023-04-22T08:50:06.241Z,18.69
2023-04-22T08:52:32.987Z,18.65
2023-04-22T08:54:59.790Z,18.62
2023-04-22T08:57:26.720Z,18.92
2023-04-22T08:59:56.082Z,19.14
2023-04-22T09:02:24.615Z,19.20
2023-04-22T09:04:53.521Z,19.29
2023-04-22T09:07:26.901Z,19.56
2023-04-22T09:09:55.387Z,19.62
2023-04-22T09:12:22.208Z,19.56
2023-04-22T09:14:48.851Z,20.16
2023-04-22T09:17:29.358Z,19.80
2023-04-22T09:20:00.245Z,20.20
2023-04-22T09:22:38.302Z,20.18
2023-04-22T09:25:05.129Z,20.03
2023-04-22T09:27:31.618Z,20.14
2023-04-22T09:29:57.964Z,20.16
2023-04-22T09:32:26.019Z,20.23
2023-04-22T09:34:54.276Z,20.38
2023-04-22T09:37:25.132Z,20.41
2023-04-22T09:39:54.098Z,20.52
2023-04-22T09:42:21.872Z,20.75
2023-04-22T09:44:53.160Z,21.07
2023-04-22T09:47:20.698Z,20.77
2023-04-22T09:49:49.160Z,21.21
2023-04-22T09:52:27.055Z,21.40
2023-04-22T09:54:54.299Z,21.08
2023-04-22T09:57:21.688Z,21.27
2023-04-22T09:59:51.702Z,21.74
2023-04-22T10:02:18.135Z,21.64
2023-04-22T10:04:45.496Z,22.00
2023-04-22T10:07:14.215Z,22.07
2023-04-22T10:09:41.218Z,22.14
2023-04-22T10:12:07.807Z,21.97
2023-04-22T10:14:34.159Z,22.09
2023-04-22T10:17:03.345Z,22.04
2023-04-22T10:19:31.521Z,22.02
2023-04-22T10:22:02.728Z,22.06
2023-04-22T10:24:35.488Z,22.00
2023-04-22T10:27:08.374Z,21.88
2023-04-22T10:29:38.849Z,22.41
2023-04-22T10:32:24.441Z,22.79
2023-04-22T10:35:07.454Z,23.07
2023-04-22T10:37:34.005Z,23.21
2023-04-22T10:40:16.626Z,22.73
2023-04-22T10:42:49.645Z,22.79
2023-04-22T10:45:16.113Z,22.80
2023-04-22T10:47:43.029Z,22.73
2023-04-22T10:50:09.569Z,22.67
2023-04-22T10:52:38.845Z,22.76
2023-04-22T10:55:05.788Z,22.55
2023-04-22T10:57:38.176Z,23.18
2023-04-22T11:00:22.856Z,24.28
2023-04-22T11:03:16.310Z,25.57
2023-04-22T11:05:43.755Z,25.75
2023-04-22T11:08:20.788Z,25.80
2023-04-22T11:10:49.967Z,25.81
2023-04-22T11:13:21.291Z,24.95
2023-04-22T11:15:55.841Z,24.34
2023-04-22T11:18:23.034Z,24.42
2023-04-22T11:20:51.565Z,25.33
2023-04-22T11:23:26.445Z,26.61
2023-04-22T11:25:58.016Z,28.05
2023-04-22T11:28:24.567Z,28.15
2023-04-22T11:30:51.507Z,28.42
2023-04-22T11:33:20.589Z,27.62
2023-04-22T11:35:50.444Z,26.43
2023-04-22T11:38:16.958Z,25.48
2023-04-22T11:40:46.364Z,25.26
2023-04-22T11:43:13.619Z,24.16
2023-04-22T11:45:40.489Z,24.23
2023-04-22T11:48:08.694Z,24.24
2023-04-22T11:50:37.830Z,23.86
2023-04-22T11:53:13.196Z,23.57
2023-04-22T11:55:41.350Z,23.72
2023-04-22T11:58:14.542Z,23.46
2023-04-22T12:00:49.166Z,23.15
2023-04-22T12:03:18.143Z,23.82
2023-04-22T12:05:59.776Z,23.87
2023-04-22T12:08:30.617Z,24.19
2023-04-22T12:11:06.108Z,23.96
2023-04-22T12:13:38.726Z,24.03
2023-04-22T12:16:09.696Z,23.87
2023-04-22T12:18:41.495Z,23.73
2023-04-22T12:21:11.280Z,23.52
2023-04-22T12:23:44.996Z,23.54
2023-04-22T12:26:12.968Z,22.79
2023-04-22T12:28:40.261Z,23.40
2023-04-22T12:31:07.132Z,23.30
2023-04-22T12:33:34.021Z,23.48
2023-04-22T12:36:00.427Z,22.97
2023-04-22T12:38:26.850Z,23.47
2023-04-22T12:40:53.861Z,22.95
2023-04-22T12:43:20.264Z,22.97
2023-04-22T12:45:47.010Z,21.98
2023-04-22T12:48:13.531Z,21.73
2023-04-22T12:50:40.819Z,21.08
2023-04-22T12:53:07.245Z,20.88
2023-04-22T12:55:34.154Z,21.78
2023-04-22T12:58:01.264Z,21.47
2023-04-22T13:00:27.932Z,22.07
2023-04-22T13:02:54.506Z,22.00
2023-04-22T13:05:20.964Z,21.62
2023-04-22T13:07:56.298Z,22.32
2023-04-22T13:10:30.280Z,21.63
2023-04-22T13:13:09.726Z,22.10
2023-04-22T13:15:43.385Z,22.11
2023-04-22T13:18:09.893Z,21.43
2023-04-22T13:20:36.734Z,21.88
2023-04-22T13:23:05.641Z,21.44
2023-04-22T13:25:32.098Z,21.88
2023-04-22T13:27:58.507Z,21.89
2023-04-22T13:30:24.913Z,21.61
2023-04-22T13:32:52.149Z,21.80
2023-04-22T13:35:18.632Z,21.37
2023-04-22T13:37:46.198Z,21.09
2023-04-22T13:40:13.025Z,21.21
2023-04-22T13:42:39.408Z,20.77
2023-04-22T13:45:06.984Z,20.48
2023-04-22T13:47:33.375Z,20.19
2023-04-22T13:50:00.780Z,19.42
2023-04-22T13:52:27.592Z,19.51
2023-04-22T13:54:54.299Z,19.71
2023-04-22T13:57:20.797Z,20.57
2023-04-22T13:59:47.272Z,20.26
2023-04-22T14:02:13.764Z,21.02
2023-04-22T14:04:40.201Z,20.72
2023-04-22T14:07:06.933Z,20.09
2023-04-22T14:09:34.562Z,20.79
2023-04-22T14:12:01.262Z,21.21
2023-04-22T14:14:27.742Z,20.86
2023-04-22T14:16:54.398Z,20.55
2023-04-22T14:19:21.212Z,21.15
2023-04-22T14:21:47.611Z,21.38
2023-04-22T14:24:14.423Z,21.11
2023-04-22T14:26:41.234Z,20.61
2023-04-22T14:29:07.968Z,20.33
2023-04-22T14:48:24.896Z,21.26
2023-04-22T14:50:51.291Z,20.44
2023-04-22T14:53:19.939Z,20.96
2023-04-22T14:55:46.401Z,20.83
2023-04-22T14:58:12.901Z,21.09
2023-04-22T15:00:39.674Z,20.73
2023-04-22T15:03:06.179Z,20.53
2023-04-22T15:05:32.683Z,21.30
2023-04-22T15:07:59.107Z,21.06
2023-04-22T15:10:26.509Z,20.99
2023-04-22T15:12:53.413Z,20.87
2023-04-22T15:15:20.011Z,21.71
2023-04-22T15:17:46.517Z,21.81
2023-04-22T15:20:13.702Z,21.74
2023-04-22T15:22:43.305Z,21.88
2023-04-22T15:25:10.633Z,22.04
2023-04-22T15:27:38.395Z,21.68
2023-04-22T15:30:06.245Z,21.80
2023-04-22T15:32:32.799Z,21.47
2023-04-22T15:34:59.215Z,20.69
2023-04-22T15:37:25.931Z,20.50
2023-04-22T15:39:52.330Z,21.17
2023-04-22T15:42:18.775Z,21.21
2023-04-22T15:44:45.165Z,20.68
2023-04-22T15:47:11.788Z,20.72
2023-04-22T15:49:38.736Z,19.92
2023-04-22T15:52:05.422Z,19.83
2023-04-22T15:54:31.933Z,18.80
2023-04-22T15:56:58.285Z,19.22
2023-04-22T15:59:24.681Z,19.36
2023-04-22T16:01:51.171Z,18.51
2023-04-22T16:04:18.975Z,18.14
2023-04-22T16:06:46.162Z,18.94
2023-04-22T16:09:13.012Z,18.55
2023-04-22T16:11:39.390Z,18.64
2023-04-22T16:14:05.992Z,18.12
2023-04-22T16:16:32.691Z,18.06
2023-04-22T16:19:00.183Z,18.59
2023-04-22T16:21:26.589Z,17.72
2023-04-22T16:23:52.983Z,18.16
2023-04-22T16:26:19.676Z,18.12
2023-04-22T16:28:46.859Z,18.01
2023-04-22T16:31:13.607Z,17.98
2023-04-22T16:33:40.098Z,17.54
2023-04-22T16:36:08.731Z,17.71
2023-04-22T16:38:35.080Z,17.47
2023-04-22T16:41:01.527Z,18.12
2023-04-22T16:43:28.388Z,18.21
2023-04-22T16:45:54.822Z,18.28
2023-04-22T16:48:21.237Z,18.41
2023-04-22T16:50:47.892Z,17.99
2023-04-22T16:53:14.277Z,17.88
2023-04-22T16:55:41.526Z,18.05
2023-04-22T16:58:08.040Z,18.45
2023-04-22T17:00:34.550Z,18.17
2023-04-22T17:03:01.112Z,17.53
2023-04-22T17:05:27.619Z,18.44
2023-04-22T17:07:54.015Z,18.21
2023-04-22T17:10:22.033Z,18.41
2023-04-22T17:12:48.452Z,18.70
2023-04-22T17:15:15.216Z,18.22
2023-04-22T17:17:42.827Z,18.41
2023-04-22T17:20:09.780Z,18.02
2023-04-22T17:22:36.294Z,18.64
2023-04-22T17:25:02.839Z,18.73
2023-04-22T17:27:29.319Z,18.62
2023-04-22T17:29:56.093Z,18.81
2023-04-22T17:32:22.553Z,18.47
2023-04-22T17:34:49.053Z,18.68
2023-04-22T17:37:15.434Z,18.82
2023-04-22T17:39:41.971Z,18.36
2023-04-22T17:42:08.386Z,18.34
2023-04-22T17:44:35.513Z,18.46
2023-04-22T17:47:01.879Z,18.72
2023-04-22T17:49:28.300Z,18.93
2023-04-22T17:51:54.764Z,18.69
2023-04-22T17:54:21.390Z,18.19
2023-04-22T17:56:47.785Z,19.01
2023-04-22T17:59:14.318Z,18.99
2023-04-22T18:01:40.836Z,18.83
2023-04-22T18:04:07.420Z,18.92
2023-04-22T18:06:33.922Z,18.97
2023-04-22T18:09:00.406Z,18.01
2023-04-22T18:11:27.832Z,17.08
2023-04-22T18:13:54.831Z,16.91
2023-04-22T18:16:21.539Z,16.78
2023-04-22T18:18:47.880Z,16.59
2023-04-22T18:21:14.207Z,16.24
2023-04-22T18:23:40.684Z,16.61
2023-04-22T18:26:11.134Z,16.21
2023-04-22T18:28:40.095Z,16.72
2023-04-22T18:31:09.466Z,16.46
2023-04-22T18:33:36.353Z,16.20
2023-04-22T18:36:02.765Z,15.92
2023-04-22T18:38:29.189Z,15.69
2023-04-22T18:40:56.107Z,16.55
2023-04-22T18:43:22.600Z,16.47
2023-04-22T18:45:49.032Z,15.88
2023-04-22T18:48:15.988Z,16.33
2023-04-22T18:50:42.934Z,16.38
2023-04-22T18:53:09.383Z,15.90
2023-04-22T18:55:35.785Z,16.35
2023-04-22T18:58:02.247Z,16.17
2023-04-22T19:00:29.013Z,16.31
2023-04-22T19:02:55.567Z,15.87
2023-04-22T19:05:24.379Z,16.23
2023-04-22T19:07:50.931Z,16.14
2023-04-22T19:10:17.558Z,15.85
2023-04-22T19:12:43.902Z,16.20
2023-04-22T19:15:10.874Z,16.13
2023-04-22T19:17:38.068Z,15.87
2023-04-22T19:20:05.749Z,16.20
2023-04-22T19:22:32.228Z,15.79
2023-04-22T19:24:59.000Z,15.99
2023-04-22T19:27:25.708Z,15.98
2023-04-22T19:29:53.339Z,15.66
2023-04-22T19:32:20.931Z,16.10
2023-04-22T19:34:47.711Z,15.88
2023-04-22T19:37:14.226Z,15.88
2023-04-22T19:39:40.734Z,15.64
2023-04-22T19:42:07.612Z,15.04
2023-04-22T19:44:34.293Z,15.52
2023-04-22T19:47:01.214Z,15.33
2023-04-22T19:49:27.960Z,15.37
2023-04-22T19:51:55.361Z,15.21
2023-04-22T19:54:21.975Z,15.07
2023-04-22T19:56:49.016Z,15.55
2023-04-22T19:59:15.941Z,15.30
2023-04-22T20:01:42.625Z,15.40
2023-04-22T20:04:09.544Z,14.80
2023-04-22T20:06:36.408Z,14.77
2023-04-22T20:09:05.275Z,15.04
2023-04-22T20:11:32.536Z,14.98
2023-04-22T20:13:59.891Z,15.17
2023-04-22T20:16:26.934Z,15.05
2023-04-22T20:18:54.354Z,14.82
2023-04-22T20:21:21.128Z,15.45
2023-04-22T20:23:49.689Z,15.54
2023-04-22T20:26:20.146Z,15.47
2023-04-22T20:28:51.659Z,15.05
2023-04-22T20:31:20.335Z,15.14
2023-04-22T20:33:46.912Z,15.22
2023-04-22T20:36:15.216Z,15.35
2023-04-22T20:38:43.083Z,14.85
2023-04-22T20:41:10.112Z,14.97
2023-04-22T20:43:36.539Z,15.05
2023-04-22T20:46:03.233Z,15.32
2023-04-22T20:48:29.743Z,15.21
2023-04-22T20:50:56.134Z,15.11
2023-04-22T20:53:23.672Z,14.61
2023-04-22T20:55:50.860Z,14.95
2023-04-22T20:58:17.222Z,14.71
2023-04-22T21:00:43.858Z,14.87
2023-04-22T21:03:10.910Z,14.69
2023-04-22T21:05:41.984Z,14.37
2023-04-22T21:08:23.131Z,14.65
2023-04-22T21:10:52.064Z,14.94
2023-04-22T21:13:19.206Z,14.90
2023-04-22T21:15:59.084Z,14.75
2023-04-22T21:18:27.945Z,14.64
2023-04-22T21:20:56.237Z,14.74
2023-04-22T21:23:26.701Z,14.87
2023-04-22T21:25:57.169Z,14.25
2023-04-22T21:28:24.070Z,14.64
2023-04-22T21:30:50.847Z,14.15
2023-04-22T21:33:17.227Z,14.73
2023-04-22T21:35:43.755Z,14.55
2023-04-22T21:38:10.222Z,14.23
2023-04-22T21:40:36.991Z,14.20
2023-04-22T21:43:04.612Z,14.67
2023-04-22T21:45:31.247Z,14.27
2023-04-22T21:48:00.606Z,14.53
2023-04-22T21:50:27.457Z,14.76
2023-04-22T21:52:54.056Z,14.26
2023-04-22T21:55:20.566Z,14.10
2023-04-22T21:57:47.004Z,14.57
2023-04-22T22:00:18.232Z,14.58
2023-04-22T22:02:45.865Z,13.80
2023-04-22T22:05:14.221Z,14.59
2023-04-22T22:07:41.742Z,14.23
2023-04-22T22:10:10.572Z,14.03
2023-04-22T22:12:37.110Z,14.46
2023-04-22T22:15:05.486Z,14.49
2023-04-22T22:17:32.258Z,13.83
2023-04-22T22:19:58.739Z,14.37
2023-04-22T22:22:25.168Z,14.00
2023-04-22T22:24:52.733Z,14.48
2023-04-22T22:27:19.561Z,14.37
2023-04-22T22:29:46.454Z,13.98
2023-04-22T22:32:13.087Z,14.27
2023-04-22T22:34:39.810Z,14.14
2023-04-22T22:37:06.445Z,14.52
2023-04-22T22:39:32.796Z,13.79
2023-04-22T22:41:59.668Z,14.37
2023-04-22T22:44:26.022Z,14.39
2023-04-22T22:46:52.430Z,14.23
2023-04-22T22:49:18.835Z,14.79
2023-04-22T22:51:45.254Z,14.82
2023-04-22T22:54:11.669Z,14.89
2023-04-22T22:56:38.482Z,15.03
2023-04-22T22:59:04.904Z,15.11
2023-04-22T23:01:31.307Z,15.06
2023-04-22T23:03:57.974Z,15.04
2023-04-22T23:06:24.464Z,14.87
2023-04-22T23:08:50.993Z,14.38
2023-04-22T23:11:17.389Z,14.80
2023-04-22T23:13:44.118Z,15.06
2023-04-22T23:16:10.746Z,14.77
2023-04-22T23:18:37.794Z,14.74
2023-04-22T23:21:04.754Z,14.77
2023-04-22T23:23:32.405Z,14.58
2023-04-22T23:26:00.791Z,14.36
2023-04-22T23:28:27.784Z,14.79
2023-04-22T23:30:55.943Z,14.83
2023-04-22T23:33:25.075Z,14.93
2023-04-22T23:35:53.172Z,15.13
2023-04-22T23:38:19.612Z,15.00
2023-04-22T23:40:45.964Z,14.39
2023-04-22T23:43:12.414Z,14.33
2023-04-22T23:45:39.024Z,14.38
2023-04-22T23:48:05.425Z,14.89
2023-04-22T23:50:31.848Z,14.44
2023-04-22T23:52:58.197Z,14.31
2023-04-22T23:55:25.936Z,14.40
2023-04-22T23:57:52.613Z,14.84
